createdAt,value
2018-04-09T00:01:11.253Z,13.80
2018-04-09T00:03:38.712Z,13.80
2018-04-09T00:06:06.180Z,13.70
2018-04-09T00:08:33.621Z,13.80
2018-04-09T00:11:01.070Z,13.70
2018-04-09T00:13:29.292Z,13.60
2018-04-09T00:15:56.734Z,13.60
2018-04-09T00:18:24.183Z,13.60
2018-04-09T00:20:51.632Z,13.60
2018-04-09T00:23:19.866Z,13.60
2018-04-09T00:25:47.326Z,13.60
2018-04-09T00:28:14.787Z,13.80
2018-04-09T00:30:42.238Z,13.80
2018-04-09T00:33:09.721Z,13.70
2018-04-09T00:35:37.181Z,13.60
2018-04-09T00:38:04.646Z,13.50
2018-04-09T00:40:32.105Z,13.60
2018-04-09T00:42:59.552Z,13.70
2018-04-09T00:45:27.029Z,13.60
2018-04-09T00:47:54.491Z,13.60
2018-04-09T00:50:21.977Z,13.50
2018-04-09T00:52:49.416Z,13.60
2018-04-09T00:55:16.882Z,13.50
2018-04-09T00:57:45.166Z,13.50
2018-04-09T01:00:12.623Z,13.50
2018-04-09T01:02:40.077Z,13.50
2018-04-09T01:05:07.547Z,13.40
2018-04-09T01:07:35.015Z,13.40
2018-04-09T01:10:02.519Z,13.40
2018-04-09T01:12:30.762Z,13.20
2018-04-09T01:14:58.230Z,13.20
2018-04-09T01:17:25.694Z,12.90
2018-04-09T01:19:53.150Z,12.70
2018-04-09T01:22:20.632Z,12.50
2018-04-09T01:24:48.086Z,12.50
2018-04-09T01:27:15.524Z,12.60
2018-04-09T01:29:43.075Z,12.40
2018-04-09T01:32:10.515Z,12.30
2018-04-09T01:34:38.890Z,12.30
2018-04-09T01:37:07.144Z,12.20
2018-04-09T01:39:34.624Z,12.20
2018-04-09T01:42:02.838Z,12.20
2018-04-09T01:44:30.301Z,12.20
2018-04-09T01:46:57.763Z,12.30
2018-04-09T01:49:25.199Z,12.30
2018-04-09T01:51:53.428Z,12.20
2018-04-09T01:54:20.865Z,12.20
2018-04-09T01:56:48.314Z,12.30
2018-04-09T01:59:15.774Z,12.30
2018-04-09T02:01:44.004Z,12.30
2018-04-09T02:04:11.465Z,12.30
2018-04-09T02:06:38.914Z,12.20
2018-04-09T02:09:06.361Z,12.20
2018-04-09T02:11:33.820Z,12.30
2018-04-09T02:14:01.270Z,12.10
2018-04-09T02:16:28.746Z,12.10
2018-04-09T02:18:56.206Z,12.10
2018-04-09T02:21:23.667Z,12.20
2018-04-09T02:23:51.117Z,12.10
2018-04-09T02:26:18.575Z,12.10
2018-04-09T02:28:46.782Z,12.00
2018-04-09T02:31:14.241Z,12.00
2018-04-09T02:33:41.721Z,12.10
2018-04-09T02:36:09.180Z,12.10
2018-04-09T02:38:36.649Z,12.10
2018-04-09T02:41:04.107Z,12.00
2018-04-09T02:43:31.570Z,11.90
2018-04-09T02:45:59.030Z,12.00
2018-04-09T02:48:26.479Z,11.90
2018-04-09T02:50:53.940Z,11.80
2018-04-09T02:53:21.399Z,11.80
2018-04-09T02:55:48.875Z,11.80
2018-04-09T02:58:16.330Z,11.70
2018-04-09T03:00:43.804Z,11.80
2018-04-09T03:03:11.249Z,11.90
2018-04-09T03:05:38.681Z,12.10
2018-04-09T03:08:06.134Z,12.30
2018-04-09T03:10:33.579Z,12.30
2018-04-09T03:13:01.828Z,12.10
2018-04-09T03:15:29.298Z,12.10
2018-04-09T03:17:56.748Z,12.20
2018-04-09T03:20:24.208Z,12.30
2018-04-09T03:22:51.667Z,12.20
2018-04-09T03:25:19.128Z,12.00
2018-04-09T03:27:46.650Z,11.80
2018-04-09T03:30:14.093Z,11.90
2018-04-09T03:32:42.356Z,11.60
2018-04-09T03:35:09.828Z,11.60
2018-04-09T03:37:37.274Z,11.40
2018-04-09T03:40:04.736Z,11.50
2018-04-09T03:42:32.218Z,11.60
2018-04-09T03:44:59.652Z,11.50
2018-04-09T03:47:27.128Z,11.40
2018-04-09T03:49:54.577Z,11.50
2018-04-09T03:52:22.039Z,11.60
2018-04-09T03:54:49.492Z,11.90
2018-04-09T03:57:16.951Z,11.70
2018-04-09T03:59:44.402Z,11.70
2018-04-09T04:02:12.634Z,11.30
2018-04-09T04:04:40.839Z,11.30
2018-04-09T04:07:08.291Z,11.30
2018-04-09T04:09:36.524Z,11.80
2018-04-09T04:12:03.976Z,11.80
2018-04-09T04:14:31.438Z,11.90
2018-04-09T04:17:10.680Z,11.70
2018-04-09T04:19:50.019Z,11.50
2018-04-09T04:22:17.466Z,11.60
2018-04-09T04:24:45.047Z,11.50
2018-04-09T04:27:12.511Z,11.50
2018-04-09T04:29:39.963Z,11.50
2018-04-09T04:32:07.425Z,11.70
2018-04-09T04:34:34.883Z,11.80
2018-04-09T04:37:02.334Z,11.80
2018-04-09T04:39:29.931Z,11.70
2018-04-09T04:41:57.388Z,11.70
2018-04-09T04:44:24.848Z,11.50
2018-04-09T04:46:52.293Z,11.40
2018-04-09T04:49:19.762Z,11.40
2018-04-09T04:51:47.203Z,11.50
2018-04-09T04:54:14.648Z,11.50
2018-04-09T04:56:42.104Z,11.50
2018-04-09T04:59:09.580Z,11.20
2018-04-09T05:01:37.029Z,11.20
2018-04-09T05:04:04.508Z,11.20
2018-04-09T05:06:31.992Z,11.30
2018-04-09T05:08:59.462Z,11.10
2018-04-09T05:11:26.915Z,11.30
2018-04-09T05:13:55.176Z,11.40
2018-04-09T05:16:22.643Z,11.20
2018-04-09T05:18:50.129Z,11.10
2018-04-09T05:21:17.566Z,11.20
2018-04-09T05:23:45.026Z,11.20
2018-04-09T05:26:12.473Z,11.30
2018-04-09T05:28:39.925Z,11.50
2018-04-09T05:31:08.169Z,11.20
2018-04-09T05:33:35.623Z,11.10
2018-04-09T05:36:07.647Z,11.40
2018-04-09T05:38:35.106Z,11.50
2018-04-09T05:41:03.317Z,11.50
2018-04-09T05:43:30.792Z,11.50
2018-04-09T05:45:58.237Z,11.60
2018-04-09T05:48:25.674Z,11.50
2018-04-09T05:50:53.128Z,11.30
2018-04-09T05:53:21.341Z,11.60
2018-04-09T05:55:48.784Z,11.60
2018-04-09T05:58:16.237Z,11.50
2018-04-09T06:00:44.471Z,11.70
2018-04-09T06:03:11.945Z,11.70
2018-04-09T06:05:39.428Z,11.80
2018-04-09T06:08:07.641Z,11.60
2018-04-09T06:10:35.098Z,11.50
2018-04-09T06:13:02.546Z,11.60
2018-04-09T06:15:29.996Z,11.30
2018-04-09T06:17:58.231Z,11.60
2018-04-09T06:20:25.678Z,11.60
2018-04-09T06:22:53.138Z,11.80
2018-04-09T06:25:20.584Z,11.90
2018-04-09T06:27:48.036Z,12.00
2018-04-09T06:30:15.497Z,12.00
2018-04-09T06:32:43.688Z,12.20
2018-04-09T06:35:11.127Z,12.10
2018-04-09T06:37:39.357Z,12.20
2018-04-09T06:40:06.800Z,12.30
2018-04-09T06:42:34.258Z,12.30
2018-04-09T06:45:01.724Z,12.30
2018-04-09T06:47:29.178Z,12.20
2018-04-09T06:49:56.656Z,12.20
2018-04-09T06:52:24.108Z,12.20
2018-04-09T06:54:51.575Z,12.40
2018-04-09T06:57:19.031Z,12.50
2018-04-09T06:59:46.474Z,12.60
2018-04-09T07:02:14.720Z,12.50
2018-04-09T07:04:42.171Z,12.50
2018-04-09T07:07:09.702Z,12.50
2018-04-09T07:09:37.142Z,12.50
2018-04-09T07:12:05.373Z,12.40
2018-04-09T07:14:32.814Z,12.40
2018-04-09T07:17:00.278Z,12.40
2018-04-09T07:19:28.446Z,12.30
2018-04-09T07:21:55.918Z,12.40
2018-04-09T07:24:23.371Z,12.40
2018-04-09T07:26:50.868Z,12.30
2018-04-09T07:29:18.327Z,12.30
2018-04-09T07:31:45.788Z,12.10
2018-04-09T07:34:13.234Z,12.30
2018-04-09T07:36:40.682Z,12.30
2018-04-09T07:39:08.135Z,12.50
2018-04-09T07:41:35.623Z,12.60
2018-04-09T07:44:03.101Z,12.80
2018-04-09T07:46:30.727Z,12.90
2018-04-09T07:48:58.175Z,13.10
2018-04-09T07:51:26.398Z,13.40
2018-04-09T07:53:53.860Z,13.40
2018-04-09T07:56:21.351Z,13.40
2018-04-09T07:58:48.808Z,13.40
2018-04-09T08:01:16.254Z,13.50
2018-04-09T08:03:43.709Z,13.60
2018-04-09T08:06:13.080Z,13.80
2018-04-09T08:08:41.301Z,13.90
2018-04-09T08:11:08.842Z,13.90
2018-04-09T08:13:36.293Z,14.00
2018-04-09T08:16:03.727Z,13.80
2018-04-09T08:18:31.959Z,14.00
2018-04-09T08:20:59.436Z,14.00
2018-04-09T08:23:26.889Z,14.10
2018-04-09T08:25:54.629Z,14.10
2018-04-09T08:28:22.090Z,14.00
2018-04-09T08:30:49.539Z,14.10
2018-04-09T08:33:17.758Z,14.20
2018-04-09T08:35:45.216Z,14.10
2018-04-09T08:38:12.687Z,14.20
2018-04-09T08:40:40.131Z,14.30
2018-04-09T08:43:07.592Z,14.40
2018-04-09T08:45:35.022Z,14.50
2018-04-09T08:48:03.275Z,14.80
2018-04-09T08:50:30.748Z,14.80
2018-04-09T08:52:58.195Z,14.80
2018-04-09T08:55:25.648Z,14.80
2018-04-09T08:57:53.111Z,14.90
2018-04-09T09:00:20.552Z,15.00
2018-04-09T09:02:48.034Z,15.10
2018-04-09T09:05:16.632Z,15.10
2018-04-09T09:07:44.086Z,15.10
2018-04-09T09:10:11.543Z,15.20
2018-04-09T09:12:38.981Z,15.20
2018-04-09T09:15:06.448Z,15.30
2018-04-09T09:17:33.911Z,15.30
2018-04-09T09:20:01.390Z,15.40
2018-04-09T09:22:28.857Z,15.40
2018-04-09T09:24:56.347Z,15.40
2018-04-09T09:27:23.781Z,15.50
2018-04-09T09:29:51.245Z,15.50
2018-04-09T09:32:18.708Z,15.60
2018-04-09T09:34:46.163Z,15.70
2018-04-09T09:37:13.608Z,15.80
2018-04-09T09:39:41.078Z,15.90
2018-04-09T09:42:08.529Z,15.90
2018-04-09T09:44:35.977Z,16.00
2018-04-09T09:47:03.424Z,16.10
2018-04-09T09:49:31.653Z,16.20
2018-04-09T09:51:59.095Z,16.20
2018-04-09T09:54:26.553Z,16.30
2018-04-09T09:56:54.007Z,16.30
2018-04-09T09:59:21.451Z,16.40
2018-04-09T10:01:49.684Z,16.50
2018-04-09T10:04:17.137Z,16.40
2018-04-09T10:06:45.597Z,16.50
2018-04-09T10:09:13.064Z,16.60
2018-04-09T10:11:40.513Z,16.60
2018-04-09T10:14:08.747Z,16.70
2018-04-09T10:16:36.220Z,16.60
2018-04-09T10:19:03.664Z,16.70
2018-04-09T10:21:31.128Z,16.80
2018-04-09T10:23:58.570Z,16.80
2018-04-09T10:26:26.032Z,16.80
2018-04-09T10:28:53.488Z,16.90
2018-04-09T10:31:20.934Z,16.90
2018-04-09T10:33:48.386Z,17.10
2018-04-09T10:36:16.634Z,17.30
2018-04-09T10:38:44.063Z,17.20
2018-04-09T10:41:11.552Z,17.30
2018-04-09T10:43:38.997Z,17.40
2018-04-09T10:46:06.451Z,17.50
2018-04-09T10:48:33.914Z,17.60
2018-04-09T10:51:01.397Z,17.60
2018-04-09T10:53:28.852Z,17.70
2018-04-09T10:55:56.290Z,17.90
2018-04-09T10:58:23.730Z,17.80
2018-04-09T11:00:51.941Z,17.90
2018-04-09T11:03:19.411Z,17.90
2018-04-09T11:05:46.881Z,17.90
2018-04-09T11:08:14.325Z,18.00
2018-04-09T11:10:41.786Z,18.00
2018-04-09T11:13:09.217Z,18.00
2018-04-09T11:15:37.465Z,18.10
2018-04-09T11:18:04.916Z,18.10
2018-04-09T11:20:32.367Z,18.10
2018-04-09T11:22:59.810Z,18.10
2018-04-09T11:25:27.281Z,18.10
2018-04-09T11:27:54.738Z,18.10
2018-04-09T11:30:23.709Z,18.10
2018-04-09T11:32:51.936Z,18.20
2018-04-09T11:35:19.387Z,18.20
2018-04-09T11:37:46.840Z,18.40
2018-04-09T11:40:14.285Z,18.40
2018-04-09T11:42:41.741Z,18.50
2018-04-09T11:45:09.943Z,18.50
2018-04-09T11:47:37.402Z,18.50
2018-04-09T11:50:04.845Z,18.50
2018-04-09T11:52:33.056Z,18.50
2018-04-09T11:55:00.503Z,18.50
2018-04-09T11:57:28.026Z,18.50
2018-04-09T11:59:55.785Z,18.60
2018-04-09T12:02:23.352Z,18.60
2018-04-09T12:04:50.870Z,18.70
2018-04-09T12:07:18.316Z,18.80
2018-04-09T12:09:45.801Z,18.90
2018-04-09T12:12:13.360Z,18.80
2018-04-09T12:14:40.871Z,19.00
2018-04-09T12:17:10.342Z,19.20
2018-04-09T12:19:38.669Z,19.10
2018-04-09T12:22:06.189Z,19.30
2018-04-09T12:24:33.850Z,19.30
2018-04-09T12:27:01.649Z,19.40
2018-04-09T12:29:29.115Z,19.50
2018-04-09T12:31:56.739Z,19.50
2018-04-09T12:34:25.233Z,19.50
2018-04-09T12:36:52.726Z,19.50
2018-04-09T12:39:20.197Z,19.60
2018-04-09T12:41:47.655Z,19.60
2018-04-09T12:44:15.133Z,19.70
2018-04-09T12:46:42.610Z,19.80
2018-04-09T12:49:10.835Z,19.60
2018-04-09T12:51:38.437Z,19.60
2018-04-09T12:54:05.883Z,19.60
2018-04-09T12:56:33.372Z,19.60
2018-04-09T12:59:00.824Z,19.50
2018-04-09T13:01:28.305Z,19.50
2018-04-09T13:03:56.567Z,19.60
2018-04-09T13:06:24.822Z,19.70
2018-04-09T13:08:52.319Z,19.70
2018-04-09T13:11:20.992Z,19.60
2018-04-09T13:13:48.454Z,19.50
2018-04-09T13:16:15.914Z,19.70
2018-04-09T13:18:43.370Z,20.00
2018-04-09T13:21:10.909Z,20.10
2018-04-09T13:23:38.381Z,19.70
2018-04-09T13:26:05.834Z,19.80
2018-04-09T13:28:33.336Z,19.90
2018-04-09T13:31:00.802Z,19.70
2018-04-09T13:33:29.120Z,19.90
2018-04-09T13:35:56.568Z,20.20
2018-04-09T13:38:24.811Z,20.50
2018-04-09T13:40:52.267Z,20.50
2018-04-09T13:43:19.717Z,20.60
2018-04-09T13:45:47.313Z,20.40
2018-04-09T13:48:14.809Z,20.40
2018-04-09T13:50:43.037Z,21.40
2018-04-09T13:53:11.298Z,21.40
2018-04-09T13:55:38.781Z,21.80
2018-04-09T13:58:06.236Z,22.00
2018-04-09T14:00:33.692Z,22.20
2018-04-09T14:03:01.161Z,22.20
2018-04-09T14:05:28.652Z,22.30
2018-04-09T14:07:57.052Z,22.20
2018-04-09T14:10:25.396Z,22.40
2018-04-09T14:12:52.860Z,22.30
2018-04-09T14:15:20.314Z,22.40
2018-04-09T14:17:47.754Z,22.40
2018-04-09T14:20:15.207Z,22.40
2018-04-09T14:22:42.651Z,22.50
2018-04-09T14:25:11.544Z,22.50
2018-04-09T14:27:38.990Z,22.40
2018-04-09T14:30:06.439Z,22.40
2018-04-09T14:32:33.892Z,22.20
2018-04-09T14:35:01.375Z,22.00
2018-04-09T14:37:28.832Z,21.80
2018-04-09T14:39:56.292Z,21.90
2018-04-09T14:42:23.735Z,21.90
2018-04-09T14:44:51.210Z,21.60
2018-04-09T14:47:19.406Z,21.40
2018-04-09T14:49:46.857Z,21.50
2018-04-09T14:52:14.309Z,21.50
2018-04-09T14:54:41.772Z,21.40
2018-04-09T14:57:09.215Z,21.40
2018-04-09T14:59:36.665Z,21.50
2018-04-09T15:02:04.126Z,21.50
2018-04-09T15:04:31.586Z,21.40
2018-04-09T15:06:59.073Z,21.30
2018-04-09T15:09:26.525Z,21.30
2018-04-09T15:11:53.983Z,21.30
2018-04-09T15:14:21.467Z,21.20
2018-04-09T15:16:48.937Z,21.20
2018-04-09T15:19:16.396Z,21.20
2018-04-09T15:21:43.837Z,21.20
2018-04-09T15:24:11.292Z,21.30
2018-04-09T15:26:39.761Z,21.30
2018-04-09T15:29:07.318Z,21.20
2018-04-09T15:31:34.811Z,21.10
2018-04-09T15:34:02.378Z,21.10
2018-04-09T15:36:29.855Z,21.00
2018-04-09T15:38:57.322Z,21.00
2018-04-09T15:41:24.794Z,21.10
2018-04-09T15:43:52.244Z,21.10
2018-04-09T15:46:19.706Z,21.20
2018-04-09T15:48:47.159Z,21.20
2018-04-09T15:51:14.814Z,21.20
2018-04-09T15:53:42.247Z,21.20
2018-04-09T15:56:10.465Z,21.10
2018-04-09T15:58:37.917Z,21.10
2018-04-09T16:01:05.788Z,21.20
2018-04-09T16:03:33.313Z,21.20
2018-04-09T16:06:00.822Z,21.20
2018-04-09T16:08:28.324Z,21.20
2018-04-09T16:10:56.569Z,21.10
2018-04-09T16:13:24.042Z,21.10
2018-04-09T16:15:51.505Z,21.10
2018-04-09T16:18:18.959Z,21.00
2018-04-09T16:20:46.409Z,21.00
2018-04-09T16:23:13.876Z,20.90
2018-04-09T16:25:41.346Z,20.90
2018-04-09T16:28:08.814Z,20.80
2018-04-09T16:30:36.409Z,20.80
2018-04-09T16:33:03.988Z,20.70
2018-04-09T16:35:31.438Z,20.60
2018-04-09T16:37:58.900Z,20.50
2018-04-09T16:40:26.343Z,20.50
2018-04-09T16:42:53.791Z,20.50
2018-04-09T16:45:22.542Z,20.40
2018-04-09T16:47:51.265Z,20.10
2018-04-09T16:50:19.002Z,20.10
2018-04-09T16:52:47.312Z,19.80
2018-04-09T16:55:14.759Z,19.80
2018-04-09T16:57:42.219Z,19.40
2018-04-09T17:00:09.687Z,19.10
2018-04-09T17:02:37.128Z,19.00
2018-04-09T17:05:05.386Z,18.90
2018-04-09T17:07:33.821Z,18.90
2018-04-09T17:10:01.294Z,19.00
2018-04-09T17:12:28.747Z,19.00
2018-04-09T17:14:56.241Z,18.70
2018-04-09T17:17:23.683Z,18.60
2018-04-09T17:19:51.136Z,18.60
2018-04-09T17:25:09.905Z,18.40
2018-04-09T17:27:37.365Z,18.40
2018-04-09T17:30:04.837Z,18.30
2018-04-09T17:32:32.314Z,18.20
2018-04-09T17:35:01.676Z,18.30
2018-04-09T17:37:29.134Z,18.30
2018-04-09T17:39:57.364Z,18.20
2018-04-09T17:42:24.811Z,18.20
2018-04-09T17:44:52.271Z,18.30
2018-04-09T17:47:19.813Z,18.30
2018-04-09T17:49:47.292Z,18.30
2018-04-09T17:52:14.778Z,18.30
2018-04-09T17:54:42.255Z,18.30
2018-04-09T17:57:09.703Z,18.30
2018-04-09T17:59:37.183Z,18.20
2018-04-09T18:02:04.628Z,18.10
2018-04-09T18:04:32.267Z,17.90
2018-04-09T18:06:59.739Z,17.90
2018-04-09T18:09:27.939Z,17.80
2018-04-09T18:11:55.401Z,17.70
2018-04-09T18:14:23.654Z,17.60
2018-04-09T18:16:51.200Z,17.60
2018-04-09T18:19:18.666Z,17.50
2018-04-09T18:21:46.112Z,17.50
2018-04-09T18:24:14.381Z,17.50
2018-04-09T18:26:42.682Z,17.70
2018-04-09T18:29:11.565Z,17.80
2018-04-09T18:31:39.903Z,17.80
2018-04-09T18:34:07.376Z,17.80
2018-04-09T18:36:34.874Z,17.70
2018-04-09T18:39:03.131Z,17.50
2018-04-09T18:41:30.609Z,17.50
2018-04-09T18:43:58.068Z,17.50
2018-04-09T18:46:25.520Z,17.50
2018-04-09T18:48:52.973Z,17.50
2018-04-09T18:51:20.440Z,17.50
2018-04-09T18:53:47.899Z,17.40
2018-04-09T18:56:15.366Z,17.40
2018-04-09T18:58:42.813Z,17.40
2018-04-09T19:01:10.274Z,17.40
2018-04-09T19:03:37.707Z,17.40
2018-04-09T19:06:05.177Z,17.40
2018-04-09T19:08:32.678Z,17.30
2018-04-09T19:11:00.135Z,17.30
2018-04-09T19:13:27.642Z,17.30
2018-04-09T19:15:55.882Z,17.50
2018-04-09T19:18:23.358Z,17.50
2018-04-09T19:20:50.877Z,17.40
2018-04-09T19:23:18.376Z,17.40
2018-04-09T19:25:45.888Z,17.30
2018-04-09T19:28:13.400Z,17.30
2018-04-09T19:30:41.054Z,17.30
2018-04-09T19:33:08.503Z,17.30
2018-04-09T19:38:42.542Z,17.40
2018-04-09T19:41:10.098Z,17.30
2018-04-09T19:43:37.612Z,17.30
2018-04-09T19:46:05.118Z,17.30
2018-04-09T19:48:32.565Z,17.30
2018-04-09T19:53:33.780Z,17.20
2018-04-09T19:56:01.201Z,17.20
2018-04-09T20:01:31.598Z,17.20
2018-04-09T20:03:59.170Z,17.10
2018-04-09T20:06:26.947Z,17.00
2018-04-09T20:08:54.534Z,16.90
2018-04-09T20:11:22.853Z,16.70
2018-04-09T20:13:51.200Z,16.80
2018-04-09T20:16:19.608Z,16.70
2018-04-09T20:18:48.155Z,16.70
2018-04-09T20:21:15.735Z,16.70
2018-04-09T20:23:44.075Z,16.60
2018-04-09T20:26:13.355Z,16.60
2018-04-09T20:28:40.982Z,16.50
2018-04-09T20:31:09.647Z,16.50
2018-04-09T20:33:37.216Z,16.50
2018-04-09T20:36:05.565Z,16.30
2018-04-09T20:38:33.128Z,16.20
2018-04-09T20:41:00.777Z,16.40
2018-04-09T20:43:28.382Z,16.40
2018-04-09T20:45:55.974Z,16.30
2018-04-09T21:05:43.715Z,15.70
2018-04-09T21:08:11.304Z,15.80
2018-04-09T21:10:38.937Z,15.80
2018-04-09T21:13:07.222Z,15.80
2018-04-09T21:15:34.817Z,15.80
2018-04-09T21:18:02.410Z,15.80
2018-04-09T21:20:30.443Z,15.70
2018-04-09T21:22:58.052Z,15.60
2018-04-09T21:25:25.652Z,15.50
2018-04-09T21:27:53.240Z,15.60
2018-04-09T21:30:20.882Z,15.50
2018-04-09T21:32:49.683Z,15.40
2018-04-09T21:35:17.262Z,15.40
2018-04-09T21:37:44.913Z,15.40
2018-04-09T21:40:13.451Z,15.00
2018-04-09T21:42:41.000Z,15.00
2018-04-09T21:45:08.593Z,14.80
2018-04-09T21:47:36.314Z,14.70
2018-04-09T21:50:03.925Z,14.60
2018-04-09T21:52:32.255Z,14.80
2018-04-09T21:54:59.824Z,14.80
2018-04-09T21:57:27.392Z,14.90
2018-04-09T21:59:55.010Z,14.80
2018-04-09T22:02:22.637Z,14.70
2018-04-09T22:04:50.241Z,14.70
2018-04-09T22:07:17.772Z,14.90
2018-04-09T22:09:45.332Z,15.00
2018-04-09T22:12:12.894Z,14.80
2018-04-09T22:14:40.474Z,14.80
2018-04-09T22:17:08.972Z,14.90
2018-04-09T22:19:36.541Z,15.00
2018-04-09T22:22:04.165Z,15.00
2018-04-09T22:24:33.053Z,15.00
2018-04-09T22:27:00.691Z,14.90
2018-04-09T22:29:28.283Z,14.50
2018-04-09T22:31:55.846Z,14.10
2018-04-09T22:34:23.447Z,14.10
2018-04-09T22:36:51.048Z,14.10
2018-04-09T22:39:18.619Z,14.20
2018-04-09T22:41:46.225Z,14.30
2018-04-09T22:44:13.976Z,14.30
2018-04-09T22:46:42.850Z,14.20
2018-04-09T22:49:10.429Z,14.20
2018-04-09T22:51:38.888Z,14.20
2018-04-09T22:54:06.472Z,13.90
2018-04-09T22:56:34.060Z,13.80
2018-04-09T22:59:02.003Z,14.20
2018-04-09T23:01:29.574Z,14.20
2018-04-09T23:03:57.931Z,13.90
2018-04-09T23:06:26.296Z,13.90
2018-04-09T23:08:53.841Z,13.90
2018-04-09T23:11:21.458Z,14.10
2018-04-09T23:13:49.049Z,14.00
2018-04-09T23:16:17.362Z,14.10
2018-04-09T23:18:44.959Z,14.10
2018-04-09T23:21:12.551Z,13.80
2018-04-09T23:23:40.162Z,13.70
2018-04-09T23:26:08.516Z,13.60
2018-04-09T23:28:36.110Z,13.50
2018-04-09T23:31:04.993Z,13.80
2018-04-09T23:33:32.833Z,13.80
2018-04-09T23:36:00.378Z,14.00
2018-04-09T23:38:27.982Z,14.00
2018-04-09T23:40:56.402Z,14.00
2018-04-09T23:43:25.499Z,14.00
2018-04-09T23:45:53.738Z,14.00
2018-04-09T23:48:21.349Z,14.10
2018-04-09T23:50:48.943Z,14.00
2018-04-09T23:53:16.513Z,13.90
2018-04-09T23:55:44.320Z,13.80
2018-04-09T23:58:11.917Z,13.80
